sensor_id;sensor_type;location;lat;lon;timestamp;temperature;humidity
54260;DHT22;40172;53.022;7.012;2023-09-19T00:01:41;14.80;99.90
54260;DHT22;40172;53.022;7.012;2023-09-19T00:04:09;14.70;99.90
54260;DHT22;40172;53.022;7.012;2023-09-19T00:06:36;14.60;99.90
54260;DHT22;40172;53.022;7.012;2023-09-19T00:09:02;14.60;99.90
54260;DHT22;40172;53.022;7.012;2023-09-19T00:11:28;14.60;99.90
54260;DHT22;40172;53.022;7.012;2023-09-19T00:13:54;14.60;99.90
54260;DHT22;40172;53.022;7.012;2023-09-19T00:16:20;14.60;99.90
54260;DHT22;40172;53.022;7.012;2023-09-19T00:18:46;14.50;99.90
54260;DHT22;40172;53.022;7.012;2023-09-19T00:21:12;14.50;99.90
54260;DHT22;40172;53.022;7.012;2023-09-19T00:23:38;14.40;99.90
54260;DHT22;40172;53.022;7.012;2023-09-19T00:26:06;14.40;99.90
54260;DHT22;40172;53.022;7.012;2023-09-19T00:28:32;14.30;99.90
54260;DHT22;40172;53.022;7.012;2023-09-19T00:30:57;14.30;99.90
54260;DHT22;40172;53.022;7.012;2023-09-19T00:33:27;14.20;99.90
54260;DHT22;40172;53.022;7.012;2023-09-19T00:35:54;14.20;99.90
54260;DHT22;40172;53.022;7.012;2023-09-19T00:38:22;14.10;99.90
54260;DHT22;40172;53.022;7.012;2023-09-19T00:40:52;14.10;99.90
54260;DHT22;40172;53.022;7.012;2023-09-19T00:43:21;14.00;99.90
54260;DHT22;40172;53.022;7.012;2023-09-19T00:45:51;14.00;99.90
54260;DHT22;40172;53.022;7.012;2023-09-19T00:48:17;13.90;99.90
54260;DHT22;40172;53.022;7.012;2023-09-19T00:50:44;13.90;99.90
54260;DHT22;40172;53.022;7.012;2023-09-19T00:53:14;13.90;99.90
54260;DHT22;40172;53.022;7.012;2023-09-19T00:55:40;13.80;99.90
54260;DHT22;40172;53.022;7.012;2023-09-19T00:58:08;13.70;99.90
54260;DHT22;40172;53.022;7.012;2023-09-19T01:00:35;13.70;99.90
54260;DHT22;40172;53.022;7.012;2023-09-19T01:03:00;13.60;99.90
54260;DHT22;40172;53.022;7.012;2023-09-19T01:05:29;13.60;99.90
54260;DHT22;40172;53.022;7.012;2023-09-19T01:07:57;13.60;99.90
54260;DHT22;40172;53.022;7.012;2023-09-19T01:10:24;13.50;99.90
54260;DHT22;40172;53.022;7.012;2023-09-19T01:15:40;13.50;99.90
54260;DHT22;40172;53.022;7.012;2023-09-19T01:29:38;13.30;99.90
54260;DHT22;40172;53.022;7.012;2023-09-19T01:32:05;13.20;99.90
54260;DHT22;40172;53.022;7.012;2023-09-19T01:34:49;13.20;99.90
54260;DHT22;40172;53.022;7.012;2023-09-19T01:37:16;13.20;99.90
54260;DHT22;40172;53.022;7.012;2023-09-19T01:40:08;13.20;99.90
54260;DHT22;40172;53.022;7.012;2023-09-19T01:45:43;13.20;99.90
54260;DHT22;40172;53.022;7.012;2023-09-19T01:51:14;13.20;99.90
54260;DHT22;40172;53.022;7.012;2023-09-19T01:54:00;13.10;99.90
54260;DHT22;40172;53.022;7.012;2023-09-19T01:56:36;13.20;99.90
54260;DHT22;40172;53.022;7.012;2023-09-19T01:59:11;13.10;99.90
54260;DHT22;40172;53.022;7.012;2023-09-19T02:01:39;13.10;99.90
54260;DHT22;40172;53.022;7.012;2023-09-19T02:04:07;13.10;99.90
54260;DHT22;40172;53.022;7.012;2023-09-19T02:06:33;13.10;99.90
54260;DHT22;40172;53.022;7.012;2023-09-19T02:08:59;13.00;99.90
54260;DHT22;40172;53.022;7.012;2023-09-19T02:11:25;13.00;99.90
54260;DHT22;40172;53.022;7.012;2023-09-19T02:13:51;12.90;99.90
54260;DHT22;40172;53.022;7.012;2023-09-19T02:16:19;13.10;99.90
54260;DHT22;40172;53.022;7.012;2023-09-19T02:18:50;12.90;99.90
54260;DHT22;40172;53.022;7.012;2023-09-19T02:21:16;12.90;99.90
54260;DHT22;40172;53.022;7.012;2023-09-19T02:23:43;12.90;99.90
54260;DHT22;40172;53.022;7.012;2023-09-19T02:26:09;12.90;99.90
54260;DHT22;40172;53.022;7.012;2023-09-19T02:28:34;13.00;99.90
54260;DHT22;40172;53.022;7.012;2023-09-19T02:31:01;13.00;99.90
54260;DHT22;40172;53.022;7.012;2023-09-19T02:33:27;13.00;99.90
54260;DHT22;40172;53.022;7.012;2023-09-19T02:35:58;13.00;99.90
54260;DHT22;40172;53.022;7.012;2023-09-19T02:38:24;13.00;99.90
54260;DHT22;40172;53.022;7.012;2023-09-19T02:40:54;13.00;99.90
54260;DHT22;40172;53.022;7.012;2023-09-19T02:43:20;13.00;99.90
54260;DHT22;40172;53.022;7.012;2023-09-19T02:45:46;12.90;99.90
54260;DHT22;40172;53.022;7.012;2023-09-19T02:48:12;12.90;99.90
54260;DHT22;40172;53.022;7.012;2023-09-19T02:50:38;12.80;99.90
54260;DHT22;40172;53.022;7.012;2023-09-19T02:53:05;12.90;99.90
54260;DHT22;40172;53.022;7.012;2023-09-19T02:55:32;12.80;99.90
54260;DHT22;40172;53.022;7.012;2023-09-19T02:57:57;12.80;99.90
54260;DHT22;40172;53.022;7.012;2023-09-19T03:00:24;12.80;99.90
54260;DHT22;40172;53.022;7.012;2023-09-19T03:02:56;12.90;99.90
54260;DHT22;40172;53.022;7.012;2023-09-19T03:05:23;12.90;99.90
54260;DHT22;40172;53.022;7.012;2023-09-19T03:07:49;12.90;99.90
54260;DHT22;40172;53.022;7.012;2023-09-19T03:10:17;12.90;99.90
54260;DHT22;40172;53.022;7.012;2023-09-19T03:12:43;12.90;99.90
54260;DHT22;40172;53.022;7.012;2023-09-19T03:15:09;12.90;99.90
54260;DHT22;40172;53.022;7.012;2023-09-19T03:17:36;12.80;99.90
54260;DHT22;40172;53.022;7.012;2023-09-19T03:20:03;12.90;99.90
54260;DHT22;40172;53.022;7.012;2023-09-19T03:22:29;12.90;99.90
54260;DHT22;40172;53.022;7.012;2023-09-19T03:24:55;12.90;99.90
54260;DHT22;40172;53.022;7.012;2023-09-19T03:27:21;12.80;99.90
54260;DHT22;40172;53.022;7.012;2023-09-19T03:29:47;12.80;99.90
54260;DHT22;40172;53.022;7.012;2023-09-19T03:32:12;12.80;99.90
54260;DHT22;40172;53.022;7.012;2023-09-19T03:34:38;12.80;99.90
54260;DHT22;40172;53.022;7.012;2023-09-19T03:37:09;12.80;99.90
54260;DHT22;40172;53.022;7.012;2023-09-19T03:39:35;12.80;99.90
54260;DHT22;40172;53.022;7.012;2023-09-19T03:42:01;12.80;99.90
54260;DHT22;40172;53.022;7.012;2023-09-19T03:44:32;12.80;99.90
54260;DHT22;40172;53.022;7.012;2023-09-19T03:46:58;12.90;99.90
54260;DHT22;40172;53.022;7.012;2023-09-19T03:49:23;12.90;99.90
54260;DHT22;40172;53.022;7.012;2023-09-19T03:51:49;12.90;99.90
54260;DHT22;40172;53.022;7.012;2023-09-19T03:54:14;12.90;99.90
54260;DHT22;40172;53.022;7.012;2023-09-19T03:56:40;12.90;99.90
54260;DHT22;40172;53.022;7.012;2023-09-19T03:59:05;12.90;99.90
54260;DHT22;40172;53.022;7.012;2023-09-19T04:01:31;12.90;99.90
54260;DHT22;40172;53.022;7.012;2023-09-19T04:03:59;12.90;99.90
54260;DHT22;40172;53.022;7.012;2023-09-19T04:06:36;13.00;99.90
54260;DHT22;40172;53.022;7.012;2023-09-19T04:09:03;13.00;99.90
54260;DHT22;40172;53.022;7.012;2023-09-19T04:11:32;13.00;99.90
54260;DHT22;40172;53.022;7.012;2023-09-19T04:13:58;13.00;99.90
54260;DHT22;40172;53.022;7.012;2023-09-19T04:16:24;13.00;99.90
54260;DHT22;40172;53.022;7.012;2023-09-19T04:18:50;13.00;99.90
54260;DHT22;40172;53.022;7.012;2023-09-19T04:21:15;12.90;99.90
54260;DHT22;40172;53.022;7.012;2023-09-19T04:23:41;12.90;99.90
54260;DHT22;40172;53.022;7.012;2023-09-19T04:26:08;12.90;99.90
54260;DHT22;40172;53.022;7.012;2023-09-19T04:28:33;12.90;99.90
54260;DHT22;40172;53.022;7.012;2023-09-19T04:31:00;12.90;99.90
54260;DHT22;40172;53.022;7.012;2023-09-19T04:33:26;12.90;99.90
54260;DHT22;40172;53.022;7.012;2023-09-19T04:35:53;13.00;99.90
54260;DHT22;40172;53.022;7.012;2023-09-19T04:38:19;13.00;99.90
54260;DHT22;40172;53.022;7.012;2023-09-19T04:40:45;12.90;99.90
54260;DHT22;40172;53.022;7.012;2023-09-19T04:43:11;12.90;99.90
54260;DHT22;40172;53.022;7.012;2023-09-19T04:45:38;13.00;99.90
54260;DHT22;40172;53.022;7.012;2023-09-19T04:48:05;13.10;99.90
54260;DHT22;40172;53.022;7.012;2023-09-19T04:50:32;13.10;99.90
54260;DHT22;40172;53.022;7.012;2023-09-19T04:52:59;13.10;99.90
54260;DHT22;40172;53.022;7.012;2023-09-19T04:55:25;12.20;99.90
54260;DHT22;40172;53.022;7.012;2023-09-19T04:57:51;13.20;99.90
54260;DHT22;40172;53.022;7.012;2023-09-19T05:00:20;13.20;99.90
54260;DHT22;40172;53.022;7.012;2023-09-19T05:02:50;13.20;99.90
54260;DHT22;40172;53.022;7.012;2023-09-19T05:05:18;13.30;99.90
54260;DHT22;40172;53.022;7.012;2023-09-19T05:07:44;13.30;99.90
54260;DHT22;40172;53.022;7.012;2023-09-19T05:10:10;13.30;99.90
54260;DHT22;40172;53.022;7.012;2023-09-19T05:12:37;13.40;99.90
54260;DHT22;40172;53.022;7.012;2023-09-19T05:15:03;13.40;99.90
54260;DHT22;40172;53.022;7.012;2023-09-19T05:17:30;13.40;99.90
54260;DHT22;40172;53.022;7.012;2023-09-19T05:19:57;13.40;99.90
54260;DHT22;40172;53.022;7.012;2023-09-19T05:22:23;13.50;99.90
54260;DHT22;40172;53.022;7.012;2023-09-19T05:24:50;13.50;99.90
54260;DHT22;40172;53.022;7.012;2023-09-19T05:27:17;13.50;99.90
54260;DHT22;40172;53.022;7.012;2023-09-19T05:29:43;13.50;99.90
54260;DHT22;40172;53.022;7.012;2023-09-19T05:32:10;13.50;99.90
54260;DHT22;40172;53.022;7.012;2023-09-19T05:34:36;13.50;99.90
54260;DHT22;40172;53.022;7.012;2023-09-19T05:37:02;13.50;99.90
54260;DHT22;40172;53.022;7.012;2023-09-19T05:39:28;13.40;99.90
54260;DHT22;40172;53.022;7.012;2023-09-19T05:41:53;13.40;99.90
54260;DHT22;40172;53.022;7.012;2023-09-19T05:44:19;13.50;99.90
54260;DHT22;40172;53.022;7.012;2023-09-19T05:46:44;13.50;99.90
54260;DHT22;40172;53.022;7.012;2023-09-19T05:49:13;13.50;99.90
54260;DHT22;40172;53.022;7.012;2023-09-19T05:51:39;13.40;99.90
54260;DHT22;40172;53.022;7.012;2023-09-19T05:54:05;13.50;99.90
54260;DHT22;40172;53.022;7.012;2023-09-19T05:56:31;13.80;99.90
54260;DHT22;40172;53.022;7.012;2023-09-19T05:58:56;13.50;99.90
54260;DHT22;40172;53.022;7.012;2023-09-19T06:01:22;13.50;99.90
54260;DHT22;40172;53.022;7.012;2023-09-19T06:03:48;13.50;99.90
54260;DHT22;40172;53.022;7.012;2023-09-19T06:06:14;13.50;99.90
54260;DHT22;40172;53.022;7.012;2023-09-19T06:08:39;13.50;99.90
54260;DHT22;40172;53.022;7.012;2023-09-19T06:11:06;13.50;99.90
54260;DHT22;40172;53.022;7.012;2023-09-19T06:13:32;13.50;99.90
54260;DHT22;40172;53.022;7.012;2023-09-19T06:15:59;13.40;99.90
54260;DHT22;40172;53.022;7.012;2023-09-19T06:18:28;13.40;99.90
54260;DHT22;40172;53.022;7.012;2023-09-19T06:20:55;13.40;99.90
54260;DHT22;40172;53.022;7.012;2023-09-19T06:23:21;13.40;99.90
54260;DHT22;40172;53.022;7.012;2023-09-19T06:25:47;13.50;99.90
54260;DHT22;40172;53.022;7.012;2023-09-19T06:28:12;13.50;99.90
54260;DHT22;40172;53.022;7.012;2023-09-19T06:30:38;13.50;99.90
54260;DHT22;40172;53.022;7.012;2023-09-19T06:33:05;13.50;99.90
54260;DHT22;40172;53.022;7.012;2023-09-19T06:35:33;13.50;99.90
54260;DHT22;40172;53.022;7.012;2023-09-19T06:37:59;13.50;99.90
54260;DHT22;40172;53.022;7.012;2023-09-19T06:40:28;13.60;99.90
54260;DHT22;40172;53.022;7.012;2023-09-19T06:42:56;13.60;99.90
54260;DHT22;40172;53.022;7.012;2023-09-19T06:45:22;13.70;99.90
54260;DHT22;40172;53.022;7.012;2023-09-19T06:47:51;13.80;99.90
54260;DHT22;40172;53.022;7.012;2023-09-19T06:50:21;13.80;99.90
54260;DHT22;40172;53.022;7.012;2023-09-19T06:52:53;13.80;99.90
54260;DHT22;40172;53.022;7.012;2023-09-19T06:55:19;13.80;99.90
54260;DHT22;40172;53.022;7.012;2023-09-19T06:57:46;13.90;99.90
54260;DHT22;40172;53.022;7.012;2023-09-19T07:00:13;13.90;99.90
54260;DHT22;40172;53.022;7.012;2023-09-19T07:03:02;13.90;99.90
54260;DHT22;40172;53.022;7.012;2023-09-19T07:05:34;13.90;99.90
54260;DHT22;40172;53.022;7.012;2023-09-19T07:08:03;14.00;99.90
54260;DHT22;40172;53.022;7.012;2023-09-19T07:10:30;14.00;99.90
54260;DHT22;40172;53.022;7.012;2023-09-19T07:13:06;14.10;99.90
54260;DHT22;40172;53.022;7.012;2023-09-19T07:15:34;14.20;99.90
54260;DHT22;40172;53.022;7.012;2023-09-19T07:18:07;14.30;99.90
54260;DHT22;40172;53.022;7.012;2023-09-19T07:20:36;14.30;99.90
54260;DHT22;40172;53.022;7.012;2023-09-19T07:23:02;15.00;99.90
54260;DHT22;40172;53.022;7.012;2023-09-19T07:25:28;14.30;99.90
54260;DHT22;40172;53.022;7.012;2023-09-19T07:27:58;14.30;99.90
54260;DHT22;40172;53.022;7.012;2023-09-19T07:30:25;14.30;99.90
54260;DHT22;40172;53.022;7.012;2023-09-19T07:32:51;14.40;99.90
54260;DHT22;40172;53.022;7.012;2023-09-19T07:35:17;14.40;99.90
54260;DHT22;40172;53.022;7.012;2023-09-19T07:37:46;15.50;99.90
54260;DHT22;40172;53.022;7.012;2023-09-19T07:40:15;14.60;99.90
54260;DHT22;40172;53.022;7.012;2023-09-19T07:42:41;14.70;99.90
54260;DHT22;40172;53.022;7.012;2023-09-19T07:45:10;14.70;99.90
54260;DHT22;40172;53.022;7.012;2023-09-19T07:50:11;14.90;99.90
54260;DHT22;40172;53.022;7.012;2023-09-19T07:52:36;15.00;99.90
54260;DHT22;40172;53.022;7.012;2023-09-19T07:55:05;15.00;99.90
54260;DHT22;40172;53.022;7.012;2023-09-19T07:57:35;15.10;99.90
54260;DHT22;40172;53.022;7.012;2023-09-19T08:00:01;15.20;99.90
54260;DHT22;40172;53.022;7.012;2023-09-19T08:02:33;15.30;99.90
54260;DHT22;40172;53.022;7.012;2023-09-19T08:04:59;15.30;99.90
54260;DHT22;40172;53.022;7.012;2023-09-19T08:07:25;15.20;99.90
54260;DHT22;40172;53.022;7.012;2023-09-19T08:09:51;15.20;99.90
54260;DHT22;40172;53.022;7.012;2023-09-19T08:12:17;15.20;99.90
54260;DHT22;40172;53.022;7.012;2023-09-19T08:14:42;15.10;99.90
54260;DHT22;40172;53.022;7.012;2023-09-19T08:17:08;15.20;99.90
54260;DHT22;40172;53.022;7.012;2023-09-19T08:19:34;15.10;99.90
54260;DHT22;40172;53.022;7.012;2023-09-19T08:22:00;15.20;99.90
54260;DHT22;40172;53.022;7.012;2023-09-19T08:24:29;15.20;99.90
54260;DHT22;40172;53.022;7.012;2023-09-19T08:26:56;15.10;99.90
54260;DHT22;40172;53.022;7.012;2023-09-19T08:29:25;15.10;99.90
54260;DHT22;40172;53.022;7.012;2023-09-19T08:31:59;15.10;99.90
54260;DHT22;40172;53.022;7.012;2023-09-19T08:34:25;15.20;99.90
54260;DHT22;40172;53.022;7.012;2023-09-19T08:36:54;15.20;99.90
54260;DHT22;40172;53.022;7.012;2023-09-19T08:39:23;15.20;99.90
54260;DHT22;40172;53.022;7.012;2023-09-19T08:41:49;15.40;99.90
54260;DHT22;40172;53.022;7.012;2023-09-19T08:44:15;15.30;99.90
54260;DHT22;40172;53.022;7.012;2023-09-19T08:46:42;15.40;99.90
54260;DHT22;40172;53.022;7.012;2023-09-19T08:49:58;15.40;99.90
54260;DHT22;40172;53.022;7.012;2023-09-19T08:52:20;15.50;99.90
54260;DHT22;40172;53.022;7.012;2023-09-19T08:54:49;15.60;99.90
54260;DHT22;40172;53.022;7.012;2023-09-19T08:57:17;15.70;99.90
54260;DHT22;40172;53.022;7.012;2023-09-19T08:59:50;15.70;99.90
54260;DHT22;40172;53.022;7.012;2023-09-19T09:02:16;15.70;99.90
54260;DHT22;40172;53.022;7.012;2023-09-19T09:04:45;15.80;99.90
54260;DHT22;40172;53.022;7.012;2023-09-19T09:07:13;16.40;99.90
54260;DHT22;40172;53.022;7.012;2023-09-19T09:09:39;16.00;99.90
54260;DHT22;40172;53.022;7.012;2023-09-19T09:12:13;16.10;99.90
54260;DHT22;40172;53.022;7.012;2023-09-19T09:14:46;16.20;99.90
54260;DHT22;40172;53.022;7.012;2023-09-19T09:17:16;16.30;99.90
54260;DHT22;40172;53.022;7.012;2023-09-19T09:19:46;16.30;99.90
54260;DHT22;40172;53.022;7.012;2023-09-19T09:22:11;16.40;99.90
54260;DHT22;40172;53.022;7.012;2023-09-19T09:24:51;16.40;99.90
54260;DHT22;40172;53.022;7.012;2023-09-19T09:27:19;16.40;99.90
54260;DHT22;40172;53.022;7.012;2023-09-19T09:29:48;16.40;99.90
54260;DHT22;40172;53.022;7.012;2023-09-19T09:32:19;16.50;99.90
54260;DHT22;40172;53.022;7.012;2023-09-19T09:34:53;16.50;99.90
54260;DHT22;40172;53.022;7.012;2023-09-19T09:37:19;16.60;99.90
54260;DHT22;40172;53.022;7.012;2023-09-19T09:42:36;16.60;99.90
54260;DHT22;40172;53.022;7.012;2023-09-19T09:45:20;16.70;99.90
54260;DHT22;40172;53.022;7.012;2023-09-19T09:47:58;16.70;99.90
54260;DHT22;40172;53.022;7.012;2023-09-19T09:50:26;16.80;99.90
54260;DHT22;40172;53.022;7.012;2023-09-19T09:53:26;16.80;99.90
54260;DHT22;40172;53.022;7.012;2023-09-19T09:56:04;16.90;99.90
54260;DHT22;40172;53.022;7.012;2023-09-19T09:58:34;17.00;99.90
54260;DHT22;40172;53.022;7.012;2023-09-19T10:01:04;17.20;99.90
54260;DHT22;40172;53.022;7.012;2023-09-19T10:03:40;17.20;99.90
54260;DHT22;40172;53.022;7.012;2023-09-19T10:06:13;17.20;99.90
54260;DHT22;40172;53.022;7.012;2023-09-19T10:11:27;17.30;99.90
54260;DHT22;40172;53.022;7.012;2023-09-19T10:13:56;17.30;99.90
54260;DHT22;40172;53.022;7.012;2023-09-19T10:16:23;17.40;99.90
54260;DHT22;40172;53.022;7.012;2023-09-19T10:18:51;17.50;99.90
54260;DHT22;40172;53.022;7.012;2023-09-19T10:21:19;17.60;99.90
54260;DHT22;40172;53.022;7.012;2023-09-19T10:23:49;17.60;99.90
54260;DHT22;40172;53.022;7.012;2023-09-19T10:26:20;17.60;99.90
54260;DHT22;40172;53.022;7.012;2023-09-19T10:28:50;17.40;99.90
54260;DHT22;40172;53.022;7.012;2023-09-19T10:31:19;17.30;99.90
54260;DHT22;40172;53.022;7.012;2023-09-19T10:33:47;17.30;99.90
54260;DHT22;40172;53.022;7.012;2023-09-19T10:36:15;17.50;99.90
54260;DHT22;40172;53.022;7.012;2023-09-19T10:38:43;17.70;99.90
54260;DHT22;40172;53.022;7.012;2023-09-19T10:41:14;17.80;99.90
54260;DHT22;40172;53.022;7.012;2023-09-19T10:43:43;17.90;99.90
54260;DHT22;40172;53.022;7.012;2023-09-19T10:46:12;17.90;99.90
54260;DHT22;40172;53.022;7.012;2023-09-19T10:48:38;18.00;99.90
54260;DHT22;40172;53.022;7.012;2023-09-19T10:51:11;18.10;99.90
54260;DHT22;40172;53.022;7.012;2023-09-19T10:53:51;18.30;99.90
54260;DHT22;40172;53.022;7.012;2023-09-19T10:56:23;18.30;99.90
54260;DHT22;40172;53.022;7.012;2023-09-19T10:59:08;18.40;99.90
54260;DHT22;40172;53.022;7.012;2023-09-19T11:01:52;18.50;99.90
54260;DHT22;40172;53.022;7.012;2023-09-19T11:04:35;18.30;99.90
54260;DHT22;40172;53.022;7.012;2023-09-19T11:07:09;18.10;99.90
54260;DHT22;40172;53.022;7.012;2023-09-19T11:09:53;18.00;99.90
54260;DHT22;40172;53.022;7.012;2023-09-19T11:15:07;18.30;99.90
54260;DHT22;40172;53.022;7.012;2023-09-19T11:17:43;18.20;99.90
54260;DHT22;40172;53.022;7.012;2023-09-19T11:30:44;18.40;99.90
54260;DHT22;40172;53.022;7.012;2023-09-19T11:33:27;18.50;99.90
54260;DHT22;40172;53.022;7.012;2023-09-19T11:36:04;18.60;99.90
54260;DHT22;40172;53.022;7.012;2023-09-19T11:43:46;18.60;99.90
54260;DHT22;40172;53.022;7.012;2023-09-19T11:46:12;18.60;99.90
54260;DHT22;40172;53.022;7.012;2023-09-19T11:48:42;18.80;99.90
54260;DHT22;40172;53.022;7.012;2023-09-19T11:51:17;18.80;99.90
54260;DHT22;40172;53.022;7.012;2023-09-19T11:53:59;18.80;99.90
54260;DHT22;40172;53.022;7.012;2023-09-19T11:56:26;18.80;99.90
54260;DHT22;40172;53.022;7.012;2023-09-19T11:58:57;18.70;99.90
54260;DHT22;40172;53.022;7.012;2023-09-19T12:01:32;18.60;99.90
54260;DHT22;40172;53.022;7.012;2023-09-19T12:04:00;18.70;99.90
54260;DHT22;40172;53.022;7.012;2023-09-19T12:06:28;18.60;99.90
54260;DHT22;40172;53.022;7.012;2023-09-19T12:08:55;19.20;99.90
54260;DHT22;40172;53.022;7.012;2023-09-19T12:11:30;18.90;99.90
54260;DHT22;40172;53.022;7.012;2023-09-19T12:14:01;18.80;99.90
54260;DHT22;40172;53.022;7.012;2023-09-19T12:16:27;18.80;99.90
54260;DHT22;40172;53.022;7.012;2023-09-19T12:18:56;18.80;99.90
54260;DHT22;40172;53.022;7.012;2023-09-19T12:21:24;18.80;99.90
54260;DHT22;40172;53.022;7.012;2023-09-19T12:26:44;18.50;99.90
54260;DHT22;40172;53.022;7.012;2023-09-19T12:29:15;18.50;99.90
54260;DHT22;40172;53.022;7.012;2023-09-19T12:31:52;18.40;99.90
54260;DHT22;40172;53.022;7.012;2023-09-19T12:34:32;18.50;99.90
54260;DHT22;40172;53.022;7.012;2023-09-19T12:39:45;18.80;99.90
54260;DHT22;40172;53.022;7.012;2023-09-19T12:42:26;18.80;99.90
54260;DHT22;40172;53.022;7.012;2023-09-19T12:44:58;18.80;99.90
54260;DHT22;40172;53.022;7.012;2023-09-19T12:47:27;18.60;99.90
54260;DHT22;40172;53.022;7.012;2023-09-19T12:50:09;18.50;99.90
54260;DHT22;40172;53.022;7.012;2023-09-19T12:52:49;18.40;99.90
54260;DHT22;40172;53.022;7.012;2023-09-19T12:55:22;18.30;99.90
54260;DHT22;40172;53.022;7.012;2023-09-19T12:58:14;18.30;99.90
54260;DHT22;40172;53.022;7.012;2023-09-19T13:00:45;18.40;99.90
54260;DHT22;40172;53.022;7.012;2023-09-19T13:03:12;18.40;99.90
54260;DHT22;40172;53.022;7.012;2023-09-19T13:06:02;18.50;99.90
54260;DHT22;40172;53.022;7.012;2023-09-19T13:08:31;18.60;99.90
54260;DHT22;40172;53.022;7.012;2023-09-19T13:11:04;18.60;99.90
54260;DHT22;40172;53.022;7.012;2023-09-19T13:13:48;18.50;99.90
54260;DHT22;40172;53.022;7.012;2023-09-19T13:16:16;18.50;99.90
54260;DHT22;40172;53.022;7.012;2023-09-19T13:18:46;18.50;99.90
54260;DHT22;40172;53.022;7.012;2023-09-19T13:21:13;18.40;99.90
54260;DHT22;40172;53.022;7.012;2023-09-19T13:23:56;18.40;99.90
54260;DHT22;40172;53.022;7.012;2023-09-19T13:26:41;18.30;99.90
54260;DHT22;40172;53.022;7.012;2023-09-19T13:29:07;18.20;99.90
54260;DHT22;40172;53.022;7.012;2023-09-19T13:31:32;18.20;99.90
54260;DHT22;40172;53.022;7.012;2023-09-19T13:33:58;18.20;99.90
54260;DHT22;40172;53.022;7.012;2023-09-19T13:36:24;18.10;99.90
54260;DHT22;40172;53.022;7.012;2023-09-19T13:38:50;18.00;99.90
54260;DHT22;40172;53.022;7.012;2023-09-19T13:41:18;18.10;99.90
54260;DHT22;40172;53.022;7.012;2023-09-19T13:43:43;18.10;99.90
54260;DHT22;40172;53.022;7.012;2023-09-19T13:46:13;18.10;99.90
54260;DHT22;40172;53.022;7.012;2023-09-19T13:48:41;18.10;99.90
54260;DHT22;40172;53.022;7.012;2023-09-19T13:51:07;18.10;99.90
54260;DHT22;40172;53.022;7.012;2023-09-19T13:53:32;18.10;99.90
54260;DHT22;40172;53.022;7.012;2023-09-19T13:55:58;18.10;99.90
54260;DHT22;40172;53.022;7.012;2023-09-19T13:58:23;18.10;99.90
54260;DHT22;40172;53.022;7.012;2023-09-19T14:00:49;18.10;99.90
54260;DHT22;40172;53.022;7.012;2023-09-19T14:03:16;18.20;99.90
54260;DHT22;40172;53.022;7.012;2023-09-19T14:05:41;18.20;99.90
54260;DHT22;40172;53.022;7.012;2023-09-19T14:08:08;18.20;99.90
54260;DHT22;40172;53.022;7.012;2023-09-19T14:10:33;18.10;99.90
54260;DHT22;40172;53.022;7.012;2023-09-19T14:13:00;18.10;99.90
54260;DHT22;40172;53.022;7.012;2023-09-19T14:15:27;18.00;99.90
54260;DHT22;40172;53.022;7.012;2023-09-19T14:17:59;18.20;99.90
54260;DHT22;40172;53.022;7.012;2023-09-19T14:20:26;18.00;99.90
54260;DHT22;40172;53.022;7.012;2023-09-19T14:22:56;18.00;99.90
54260;DHT22;40172;53.022;7.012;2023-09-19T14:25:24;18.00;99.90
54260;DHT22;40172;53.022;7.012;2023-09-19T14:27:50;18.00;99.90
54260;DHT22;40172;53.022;7.012;2023-09-19T14:30:15;18.10;99.90
54260;DHT22;40172;53.022;7.012;2023-09-19T14:32:41;18.10;99.90
54260;DHT22;40172;53.022;7.012;2023-09-19T14:35:07;18.20;99.90
54260;DHT22;40172;53.022;7.012;2023-09-19T14:37:35;18.30;99.90
54260;DHT22;40172;53.022;7.012;2023-09-19T14:40:00;18.40;99.90
54260;DHT22;40172;53.022;7.012;2023-09-19T14:42:32;18.40;99.90
54260;DHT22;40172;53.022;7.012;2023-09-19T14:44:58;18.50;99.90
54260;DHT22;40172;53.022;7.012;2023-09-19T14:47:24;18.70;99.90
54260;DHT22;40172;53.022;7.012;2023-09-19T14:49:50;18.60;99.90
54260;DHT22;40172;53.022;7.012;2023-09-19T14:52:16;18.60;99.90
54260;DHT22;40172;53.022;7.012;2023-09-19T14:54:42;18.60;99.90
54260;DHT22;40172;53.022;7.012;2023-09-19T14:57:08;18.60;99.90
54260;DHT22;40172;53.022;7.012;2023-09-19T14:59:34;18.50;99.90
54260;DHT22;40172;53.022;7.012;2023-09-19T15:02:05;18.50;99.90
54260;DHT22;40172;53.022;7.012;2023-09-19T15:04:31;18.50;99.90
54260;DHT22;40172;53.022;7.012;2023-09-19T15:06:57;19.00;99.90
54260;DHT22;40172;53.022;7.012;2023-09-19T15:09:24;18.40;99.90
54260;DHT22;40172;53.022;7.012;2023-09-19T15:11:55;18.40;99.90
54260;DHT22;40172;53.022;7.012;2023-09-19T15:14:21;18.40;99.90
54260;DHT22;40172;53.022;7.012;2023-09-19T15:16:48;18.40;99.90
54260;DHT22;40172;53.022;7.012;2023-09-19T15:19:14;18.40;99.90
54260;DHT22;40172;53.022;7.012;2023-09-19T15:21:41;18.40;99.90
54260;DHT22;40172;53.022;7.012;2023-09-19T15:24:07;18.40;99.90
54260;DHT22;40172;53.022;7.012;2023-09-19T15:26:36;18.40;99.90
54260;DHT22;40172;53.022;7.012;2023-09-19T15:29:06;18.40;99.90
54260;DHT22;40172;53.022;7.012;2023-09-19T15:31:32;18.50;99.90
54260;DHT22;40172;53.022;7.012;2023-09-19T15:33:57;18.40;99.90
54260;DHT22;40172;53.022;7.012;2023-09-19T15:36:23;18.30;99.90
54260;DHT22;40172;53.022;7.012;2023-09-19T15:39:02;18.20;99.90
54260;DHT22;40172;53.022;7.012;2023-09-19T15:41:30;18.20;99.90
54260;DHT22;40172;53.022;7.012;2023-09-19T15:43:57;18.10;99.90
54260;DHT22;40172;53.022;7.012;2023-09-19T15:46:24;18.10;99.90
54260;DHT22;40172;53.022;7.012;2023-09-19T15:48:56;18.10;99.90
54260;DHT22;40172;53.022;7.012;2023-09-19T15:51:22;18.80;99.90
54260;DHT22;40172;53.022;7.012;2023-09-19T15:53:50;18.10;99.90
54260;DHT22;40172;53.022;7.012;2023-09-19T15:56:17;18.00;99.90
54260;DHT22;40172;53.022;7.012;2023-09-19T15:58:47;18.10;99.90
54260;DHT22;40172;53.022;7.012;2023-09-19T16:01:14;18.10;99.90
54260;DHT22;40172;53.022;7.012;2023-09-19T16:03:43;18.10;99.90
54260;DHT22;40172;53.022;7.012;2023-09-19T16:06:10;18.10;99.90
54260;DHT22;40172;53.022;7.012;2023-09-19T16:08:41;18.00;99.90
54260;DHT22;40172;53.022;7.012;2023-09-19T16:11:07;18.00;99.90
54260;DHT22;40172;53.022;7.012;2023-09-19T16:13:33;18.00;99.90
54260;DHT22;40172;53.022;7.012;2023-09-19T16:15:59;17.90;99.90
54260;DHT22;40172;53.022;7.012;2023-09-19T16:18:24;17.80;99.90
54260;DHT22;40172;53.022;7.012;2023-09-19T16:20:50;18.00;99.90
54260;DHT22;40172;53.022;7.012;2023-09-19T16:23:16;17.80;99.90
54260;DHT22;40172;53.022;7.012;2023-09-19T16:25:41;17.80;99.90
54260;DHT22;40172;53.022;7.012;2023-09-19T16:28:08;17.80;99.90
54260;DHT22;40172;53.022;7.012;2023-09-19T16:30:33;17.90;99.90
54260;DHT22;40172;53.022;7.012;2023-09-19T16:32:59;17.90;99.90